createdAt,value
2022-11-02T00:00:27.632Z,14.60
2022-11-02T00:02:54.008Z,14.42
2022-11-02T00:05:20.334Z,14.42
2022-11-02T00:07:46.714Z,14.31
2022-11-02T00:10:13.063Z,14.30
2022-11-02T00:12:39.385Z,14.30
2022-11-02T00:15:05.715Z,14.37
2022-11-02T00:17:32.065Z,14.58
2022-11-02T00:19:58.413Z,14.55
2022-11-02T00:22:24.762Z,14.34
2022-11-02T00:24:51.099Z,14.18
2022-11-02T00:27:17.420Z,14.20
2022-11-02T00:29:43.753Z,14.20
2022-11-02T00:32:10.075Z,14.10
2022-11-02T00:34:36.491Z,14.03
2022-11-02T00:37:02.890Z,14.00
2022-11-02T00:39:29.211Z,13.97
2022-11-02T00:41:55.539Z,13.98
2022-11-02T00:44:21.885Z,14.00
2022-11-02T00:46:48.207Z,13.98
2022-11-02T00:49:14.538Z,13.97
2022-11-02T00:51:40.904Z,14.03
2022-11-02T00:54:07.259Z,14.09
2022-11-02T00:56:33.575Z,14.15
2022-11-02T00:58:59.900Z,14.06
2022-11-02T01:01:26.316Z,13.94
2022-11-02T01:03:52.556Z,13.71
2022-11-02T01:06:18.891Z,13.73
2022-11-02T01:08:45.251Z,13.84
2022-11-02T01:11:11.595Z,13.84
2022-11-02T01:13:37.936Z,13.95
2022-11-02T01:16:04.270Z,14.12
2022-11-02T01:18:30.624Z,14.29
2022-11-02T01:20:56.939Z,14.41
2022-11-02T01:23:23.299Z,14.41
2022-11-02T01:25:49.620Z,14.30
2022-11-02T01:28:15.967Z,14.32
2022-11-02T01:30:42.327Z,14.35
2022-11-02T01:33:08.671Z,14.09
2022-11-02T01:35:35.013Z,13.94
2022-11-02T01:38:01.594Z,13.85
2022-11-02T01:40:27.709Z,13.86
2022-11-02T01:42:54.057Z,13.88
2022-11-02T01:45:20.401Z,14.15
2022-11-02T01:47:46.726Z,14.29
2022-11-02T01:50:13.056Z,14.39
2022-11-02T01:52:39.423Z,14.45
2022-11-02T01:55:05.743Z,14.34
2022-11-02T01:57:32.096Z,14.22
2022-11-02T01:59:58.473Z,14.01
2022-11-02T02:02:24.916Z,13.85
2022-11-02T02:04:51.143Z,13.70
2022-11-02T02:07:17.487Z,13.66
2022-11-02T02:09:47.279Z,13.42
2022-11-02T02:12:10.156Z,13.52
2022-11-02T02:14:36.502Z,13.55
2022-11-02T02:17:02.901Z,13.32
2022-11-02T02:19:29.261Z,13.29
2022-11-02T02:21:55.595Z,13.12
2022-11-02T02:24:21.943Z,13.02
2022-11-02T02:26:48.315Z,13.05
2022-11-02T02:29:14.621Z,12.95
2022-11-02T02:31:40.979Z,12.93
2022-11-02T02:34:07.306Z,12.75
2022-11-02T02:36:33.677Z,12.71
2022-11-02T02:39:00.012Z,12.64
2022-11-02T02:41:26.393Z,12.59
2022-11-02T02:43:52.710Z,12.53
2022-11-02T02:46:19.062Z,12.58
2022-11-02T02:48:45.399Z,12.50
2022-11-02T02:51:11.779Z,12.39
2022-11-02T02:53:38.151Z,12.39
2022-11-02T02:56:04.498Z,12.42
2022-11-02T02:58:30.840Z,12.61
2022-11-02T03:00:57.189Z,12.61
2022-11-02T03:03:23.507Z,12.58
2022-11-02T03:05:49.869Z,12.64
2022-11-02T03:08:16.211Z,12.74
2022-11-02T03:10:42.561Z,12.83
2022-11-02T03:13:08.904Z,12.65
2022-11-02T03:15:35.224Z,12.59
2022-11-02T03:18:01.860Z,12.50
2022-11-02T03:20:27.891Z,12.45
2022-11-02T03:22:54.209Z,12.36
2022-11-02T03:25:20.534Z,12.41
2022-11-02T03:27:46.865Z,12.54
2022-11-02T03:30:13.244Z,12.53
2022-11-02T03:32:39.581Z,12.41
2022-11-02T03:35:05.908Z,12.45
2022-11-02T03:37:32.253Z,12.38
2022-11-02T03:39:58.644Z,12.40
2022-11-02T03:42:24.977Z,12.45
2022-11-02T03:44:51.306Z,12.43
2022-11-02T03:47:17.681Z,12.46
2022-11-02T03:49:44.008Z,12.43
2022-11-02T03:52:10.322Z,12.30
2022-11-02T03:54:36.707Z,12.21
2022-11-02T03:59:29.341Z,12.16
2022-11-02T04:01:55.733Z,12.17
2022-11-02T04:04:22.009Z,12.17
2022-11-02T04:06:48.349Z,12.28
2022-11-02T04:09:14.700Z,12.29
2022-11-02T04:11:41.035Z,12.30
2022-11-02T04:14:07.397Z,12.13
2022-11-02T04:16:33.733Z,12.02
2022-11-02T04:19:00.061Z,12.21
2022-11-02T04:21:26.375Z,12.26
2022-11-02T04:23:52.726Z,12.14
2022-11-02T04:26:19.099Z,12.41
2022-11-02T04:28:45.449Z,12.33
2022-11-02T04:31:11.762Z,12.17
2022-11-02T04:33:38.115Z,12.51
2022-11-02T04:36:04.450Z,12.45
2022-11-02T04:38:30.777Z,12.51
2022-11-02T04:40:57.098Z,12.34
2022-11-02T04:43:23.427Z,12.45
2022-11-02T04:45:49.767Z,12.51
2022-11-02T04:48:16.094Z,12.74
2022-11-02T04:50:42.439Z,12.51
2022-11-02T04:53:08.825Z,12.35
2022-11-02T04:55:35.143Z,12.29
2022-11-02T04:58:01.634Z,12.40
2022-11-02T05:00:27.820Z,12.26
2022-11-02T05:02:54.238Z,12.10
2022-11-02T05:05:20.501Z,12.02
2022-11-02T05:07:46.828Z,11.61
2022-11-02T05:10:13.185Z,11.57
2022-11-02T05:12:39.556Z,11.64
2022-11-02T05:15:05.851Z,11.73
2022-11-02T05:17:32.205Z,11.77
2022-11-02T05:19:58.634Z,11.82
2022-11-02T05:22:24.958Z,12.18
2022-11-02T05:24:51.276Z,12.19
2022-11-02T05:27:17.629Z,12.24
2022-11-02T05:29:43.955Z,12.50
2022-11-02T05:32:10.284Z,12.52
2022-11-02T05:34:36.624Z,12.55
2022-11-02T05:37:02.973Z,12.50
2022-11-02T05:39:29.290Z,12.61
2022-11-02T05:41:55.660Z,12.71
2022-11-02T05:44:22.032Z,12.76
2022-11-02T05:46:48.323Z,12.81
2022-11-02T05:49:14.672Z,13.01
2022-11-02T05:51:41.025Z,13.29
2022-11-02T05:54:07.393Z,13.47
2022-11-02T05:56:33.752Z,13.70
2022-11-02T05:59:00.056Z,13.83
2022-11-02T06:01:26.455Z,14.01
2022-11-02T06:03:53.904Z,14.17
2022-11-02T06:06:19.146Z,14.41
2022-11-02T06:08:45.518Z,14.48
2022-11-02T06:11:11.863Z,14.47
2022-11-02T06:13:38.196Z,14.29
2022-11-02T06:16:04.525Z,14.59
2022-11-02T06:18:30.886Z,15.17
2022-11-02T06:20:57.210Z,15.80
2022-11-02T06:23:23.528Z,15.41
2022-11-02T06:25:49.878Z,15.59
2022-11-02T06:28:16.190Z,15.88
2022-11-02T06:30:42.521Z,15.90
2022-11-02T06:33:09.267Z,15.42
2022-11-02T06:35:35.265Z,15.70
2022-11-02T06:38:01.592Z,15.83
2022-11-02T06:40:27.954Z,15.99
2022-11-02T06:43:10.938Z,16.24
2022-11-02T06:45:20.600Z,16.37
2022-11-02T06:47:46.946Z,16.63
2022-11-02T06:50:13.261Z,16.74
2022-11-02T06:52:39.614Z,16.99
2022-11-02T06:55:05.974Z,17.09
2022-11-02T06:57:32.313Z,17.08
2022-11-02T06:59:58.695Z,17.26
2022-11-02T07:02:25.047Z,17.73
2022-11-02T07:04:51.349Z,18.16
2022-11-02T07:07:17.666Z,18.41
2022-11-02T07:09:44.015Z,18.50
2022-11-02T07:12:10.337Z,18.61
2022-11-02T07:14:36.691Z,18.62
2022-11-02T07:17:03.023Z,18.62
2022-11-02T07:19:29.372Z,18.91
2022-11-02T07:21:55.724Z,18.26
2022-11-02T07:26:57.456Z,18.20
2022-11-02T07:29:23.798Z,18.43
2022-11-02T07:31:50.150Z,18.72
2022-11-02T07:34:17.339Z,18.62
2022-11-02T07:36:42.833Z,19.19
2022-11-02T07:39:09.178Z,19.32
2022-11-02T07:41:35.556Z,19.24
2022-11-02T07:44:01.901Z,19.56
2022-11-02T07:46:28.227Z,19.45
2022-11-02T07:48:54.555Z,19.67
2022-11-02T07:51:20.924Z,20.30
2022-11-02T07:53:47.245Z,20.05
2022-11-02T07:56:13.592Z,20.54
2022-11-02T07:58:39.933Z,20.33
2022-11-02T08:01:06.362Z,20.08
2022-11-02T08:03:32.748Z,20.44
2022-11-02T08:05:59.063Z,20.66
2022-11-02T08:08:25.411Z,20.92
2022-11-02T08:10:51.748Z,21.22
2022-11-02T08:13:18.089Z,21.95
2022-11-02T08:15:44.433Z,22.29
2022-11-02T08:18:10.794Z,22.62
2022-11-02T08:20:37.123Z,22.75
2022-11-02T08:23:03.488Z,22.90
2022-11-02T08:25:29.831Z,23.11
2022-11-02T08:27:56.226Z,23.34
2022-11-02T08:30:22.544Z,23.49
2022-11-02T08:32:51.546Z,23.83
2022-11-02T08:35:15.205Z,23.71
2022-11-02T08:37:41.541Z,23.93
2022-11-02T08:40:07.891Z,23.97
2022-11-02T08:42:34.248Z,24.08
2022-11-02T08:45:00.569Z,24.62
2022-11-02T08:47:26.952Z,25.12
2022-11-02T08:49:53.350Z,24.63
2022-11-02T08:52:19.676Z,24.75
2022-11-02T08:54:46.006Z,25.19
2022-11-02T08:57:12.336Z,24.68
2022-11-02T08:59:38.699Z,25.06
2022-11-02T09:02:05.204Z,24.90
2022-11-02T09:04:31.394Z,24.34
2022-11-02T09:06:57.726Z,24.91
2022-11-02T09:09:24.073Z,25.02
2022-11-02T09:11:50.415Z,25.03
2022-11-02T09:14:16.839Z,25.19
2022-11-02T09:16:43.158Z,25.39
2022-11-02T09:19:09.474Z,25.65
2022-11-02T09:21:35.824Z,25.36
2022-11-02T09:24:02.159Z,25.45
2022-11-02T09:26:28.518Z,25.41
2022-11-02T09:28:54.832Z,25.55
2022-11-02T09:31:21.222Z,25.89
2022-11-02T09:33:47.584Z,26.37
2022-11-02T09:36:13.923Z,26.79
2022-11-02T09:38:40.275Z,26.58
2022-11-02T09:41:06.624Z,26.67
2022-11-02T09:43:32.993Z,26.98
2022-11-02T09:45:59.334Z,27.25
2022-11-02T09:48:28.665Z,26.77
2022-11-02T09:50:53.431Z,26.60
2022-11-02T09:53:18.368Z,26.77
2022-11-02T09:55:44.793Z,27.57
2022-11-02T09:58:11.139Z,27.84
2022-11-02T10:00:37.506Z,27.94
2022-11-02T10:03:03.880Z,27.70
2022-11-02T10:05:30.160Z,27.59
2022-11-02T10:07:56.487Z,27.99
2022-11-02T10:10:22.826Z,28.10
2022-11-02T10:12:49.210Z,28.22
2022-11-02T10:15:15.530Z,28.12
2022-11-02T10:17:41.884Z,28.37
2022-11-02T10:20:08.230Z,28.55
2022-11-02T10:22:34.569Z,28.76
2022-11-02T10:25:01.049Z,28.94
2022-11-02T10:27:27.369Z,29.33
2022-11-02T10:29:53.720Z,29.45
2022-11-02T10:32:20.077Z,29.51
2022-11-02T10:34:54.143Z,29.40
2022-11-02T10:37:12.742Z,29.55
2022-11-02T10:39:39.070Z,29.71
2022-11-02T10:42:05.431Z,29.74
2022-11-02T10:44:31.783Z,29.84
2022-11-02T10:46:58.114Z,29.99
2022-11-02T10:49:24.453Z,29.93
2022-11-02T10:51:50.776Z,29.71
2022-11-02T10:54:20.646Z,30.11
2022-11-02T10:56:43.470Z,30.69
2022-11-02T10:59:09.808Z,30.72
2022-11-02T11:01:36.199Z,30.61
2022-11-02T11:04:02.521Z,30.47
2022-11-02T11:06:28.831Z,30.48
2022-11-02T11:08:55.197Z,30.61
2022-11-02T11:11:21.516Z,30.60
2022-11-02T11:16:17.724Z,31.57
2022-11-02T11:21:06.930Z,31.74
2022-11-02T11:23:33.258Z,31.82
2022-11-02T11:25:59.612Z,31.86
2022-11-02T11:28:25.955Z,31.94
2022-11-02T11:30:59.904Z,32.18
2022-11-02T11:33:18.699Z,32.66
2022-11-02T11:35:45.021Z,32.92
2022-11-02T11:38:11.376Z,33.25
2022-11-02T11:40:37.717Z,33.30
2022-11-02T11:43:04.046Z,33.17
2022-11-02T11:45:30.388Z,32.96
2022-11-02T11:47:56.735Z,32.69
2022-11-02T11:50:24.143Z,32.59
2022-11-02T11:52:49.390Z,32.01
2022-11-02T11:55:15.716Z,31.94
2022-11-02T11:57:42.042Z,31.70
2022-11-02T12:00:08.398Z,32.11
2022-11-02T12:02:39.407Z,32.30
2022-11-02T12:05:01.044Z,32.40
2022-11-02T12:07:27.379Z,32.41
2022-11-02T12:09:53.738Z,32.61
2022-11-02T12:12:20.050Z,32.53
2022-11-02T12:14:46.384Z,32.53
2022-11-02T12:17:12.713Z,32.42
2022-11-02T12:19:39.040Z,32.23
2022-11-02T12:22:05.389Z,32.35
2022-11-02T12:24:31.767Z,32.42
2022-11-02T12:26:58.089Z,32.62
2022-11-02T12:29:24.481Z,32.49
2022-11-02T12:31:50.822Z,32.28
2022-11-02T12:34:17.160Z,32.32
2022-11-02T12:37:11.117Z,32.42
2022-11-02T12:39:09.823Z,32.46
2022-11-02T12:41:36.170Z,32.46
2022-11-02T12:44:02.515Z,32.41
2022-11-02T12:46:29.997Z,32.40
2022-11-02T12:48:55.173Z,32.03
2022-11-02T12:51:21.568Z,32.13
2022-11-02T12:53:47.900Z,32.19
2022-11-02T12:56:14.229Z,32.11
2022-11-02T12:58:40.558Z,32.36
2022-11-02T13:01:12.293Z,32.26
2022-11-02T13:03:33.242Z,32.27
2022-11-02T13:05:59.597Z,32.39
2022-11-02T13:08:25.932Z,32.35
2022-11-02T13:10:53.774Z,32.15
2022-11-02T13:13:18.626Z,32.11
2022-11-02T13:15:44.990Z,31.83
2022-11-02T13:18:11.331Z,31.19
2022-11-02T13:20:37.659Z,30.74
2022-11-02T13:23:04.396Z,30.30
2022-11-02T13:25:30.336Z,29.74
2022-11-02T13:27:59.038Z,29.68
2022-11-02T13:30:23.030Z,29.59
2022-11-02T13:32:49.387Z,29.34
2022-11-02T13:35:15.701Z,29.14
2022-11-02T13:37:42.021Z,29.05
2022-11-02T13:40:08.390Z,28.81
2022-11-02T13:42:34.738Z,28.64
2022-11-02T13:45:01.088Z,28.60
2022-11-02T13:47:27.440Z,28.52
2022-11-02T13:49:53.782Z,28.41
2022-11-02T13:52:20.099Z,28.30
2022-11-02T13:54:46.543Z,28.29
2022-11-02T13:57:12.791Z,28.20
2022-11-02T13:59:43.121Z,28.13
2022-11-02T14:02:05.688Z,28.11
2022-11-02T14:04:31.863Z,28.07
2022-11-02T14:06:58.156Z,28.04
2022-11-02T14:09:24.521Z,28.02
2022-11-02T14:11:50.866Z,27.92
2022-11-02T14:14:17.186Z,27.81
2022-11-02T14:16:43.516Z,27.78
2022-11-02T14:19:10.475Z,27.50
2022-11-02T14:21:36.166Z,27.39
2022-11-02T14:24:02.565Z,27.40
2022-11-02T14:26:28.899Z,27.33
2022-11-02T14:28:55.252Z,27.23
2022-11-02T14:31:21.697Z,27.16
2022-11-02T14:33:48.031Z,27.09
2022-11-02T14:36:14.377Z,26.98
2022-11-02T14:38:40.695Z,26.90
2022-11-02T14:41:07.016Z,26.79
2022-11-02T14:43:33.375Z,26.71
2022-11-02T14:46:01.506Z,26.64
2022-11-02T14:48:26.039Z,26.55
2022-11-02T14:50:52.387Z,26.48
2022-11-02T14:53:18.717Z,26.37
2022-11-02T14:55:45.072Z,26.30
2022-11-02T14:58:11.517Z,26.25
2022-11-02T15:00:37.775Z,26.20
2022-11-02T15:03:04.395Z,26.08
2022-11-02T15:05:30.410Z,25.99
2022-11-02T15:07:56.760Z,25.88
2022-11-02T15:10:23.079Z,25.83
2022-11-02T15:12:49.407Z,25.79
2022-11-02T15:15:15.755Z,25.66
2022-11-02T15:17:42.089Z,25.56
2022-11-02T15:20:08.435Z,25.46
2022-11-02T15:22:34.823Z,25.34
2022-11-02T15:25:01.298Z,25.33
2022-11-02T15:27:27.587Z,25.15
2022-11-02T15:29:53.957Z,25.03
2022-11-02T15:32:22.821Z,24.92
2022-11-02T15:34:46.628Z,24.88
2022-11-02T15:37:12.956Z,24.73
2022-11-02T15:39:39.290Z,24.65
2022-11-02T15:42:05.647Z,24.59
2022-11-02T15:44:31.966Z,24.51
2022-11-02T15:46:58.295Z,24.42
2022-11-02T15:49:24.622Z,24.30
2022-11-02T15:51:51.067Z,24.22
2022-11-02T15:54:17.396Z,24.17
2022-11-02T15:56:43.742Z,24.19
2022-11-02T15:59:10.062Z,24.17
2022-11-02T16:01:36.482Z,24.09
2022-11-02T16:04:02.812Z,24.02
2022-11-02T16:06:29.084Z,23.93
2022-11-02T16:08:55.423Z,23.84
2022-11-02T16:11:21.752Z,23.77
2022-11-02T16:14:08.093Z,23.68
2022-11-02T16:16:14.421Z,23.71
2022-11-02T16:18:40.766Z,23.66
2022-11-02T16:21:07.133Z,23.56
2022-11-02T16:23:33.468Z,23.44
2022-11-02T16:25:59.816Z,23.38
2022-11-02T16:28:26.190Z,23.36
2022-11-02T16:30:52.530Z,23.39
2022-11-02T16:33:18.876Z,23.35
2022-11-02T16:35:45.208Z,23.33
2022-11-02T16:38:11.537Z,23.43
2022-11-02T16:40:37.872Z,23.25
2022-11-02T16:43:04.192Z,23.04
2022-11-02T16:45:30.588Z,22.97
2022-11-02T16:47:56.902Z,22.91
2022-11-02T16:50:23.247Z,22.78
2022-11-02T16:52:49.564Z,22.65
2022-11-02T16:55:15.915Z,22.56
2022-11-02T16:57:42.252Z,22.48
2022-11-02T17:00:08.591Z,22.45
2022-11-02T17:02:35.120Z,22.42
2022-11-02T17:05:05.803Z,22.37
2022-11-02T17:07:27.795Z,22.30
2022-11-02T17:09:54.284Z,22.29
2022-11-02T17:12:20.579Z,22.24
2022-11-02T17:14:46.957Z,22.17
2022-11-02T17:17:13.494Z,22.17
2022-11-02T17:19:39.869Z,22.11
2022-11-02T17:22:06.198Z,22.09
2022-11-02T17:24:32.549Z,22.11
2022-11-02T17:26:58.985Z,22.07
2022-11-02T17:29:25.391Z,21.98
2022-11-02T17:31:51.718Z,21.88
2022-11-02T17:34:18.101Z,21.86
2022-11-02T17:36:44.388Z,21.80
2022-11-02T17:39:10.778Z,21.69
2022-11-02T17:41:37.118Z,21.56
2022-11-02T17:44:03.477Z,21.54
2022-11-02T17:46:29.820Z,21.56
2022-11-02T17:48:56.163Z,21.53
2022-11-02T17:51:22.528Z,21.52
2022-11-02T17:53:48.859Z,21.63
2022-11-02T17:56:15.192Z,21.50
2022-11-02T17:58:41.560Z,21.40
2022-11-02T18:01:07.916Z,21.33
2022-11-02T18:03:34.220Z,21.30
2022-11-02T18:06:00.932Z,21.29
2022-11-02T18:08:26.955Z,21.25
2022-11-02T18:10:53.291Z,21.21
2022-11-02T18:13:19.653Z,21.17
2022-11-02T18:15:45.980Z,21.16
2022-11-02T18:18:12.310Z,21.12
2022-11-02T18:20:41.520Z,21.14
2022-11-02T18:23:05.263Z,21.22
2022-11-02T18:25:31.353Z,21.23
2022-11-02T18:27:57.717Z,21.29
2022-11-02T18:30:24.045Z,21.29
2022-11-02T18:32:50.374Z,21.24
2022-11-02T18:35:16.727Z,21.17
2022-11-02T18:37:43.060Z,21.05
2022-11-02T18:40:09.416Z,21.04
2022-11-02T18:42:35.734Z,21.03
2022-11-02T18:45:02.095Z,21.09
2022-11-02T18:47:28.443Z,21.17
2022-11-02T18:49:54.837Z,21.25
2022-11-02T18:52:22.487Z,21.30
2022-11-02T18:54:47.524Z,21.28
2022-11-02T18:57:13.855Z,21.29
2022-11-02T18:59:40.213Z,21.30
2022-11-02T19:02:06.668Z,21.24
2022-11-02T19:04:32.897Z,21.25
2022-11-02T19:06:59.233Z,21.27
2022-11-02T19:09:25.556Z,21.31
2022-11-02T19:11:51.939Z,21.32
2022-11-02T19:14:18.282Z,21.30
2022-11-02T19:16:44.629Z,21.25
2022-11-02T19:19:11.004Z,21.20
2022-11-02T19:21:37.343Z,21.06
2022-11-02T19:24:03.688Z,20.99
2022-11-02T19:26:30.047Z,20.99
2022-11-02T19:28:58.785Z,20.91
2022-11-02T19:31:22.711Z,20.94
2022-11-02T19:33:49.074Z,20.91
2022-11-02T19:36:15.393Z,20.95
2022-11-02T19:38:41.756Z,20.95
2022-11-02T19:41:08.104Z,20.94
2022-11-02T19:43:34.461Z,20.92
2022-11-02T19:46:00.803Z,20.90
2022-11-02T19:48:27.188Z,20.90
2022-11-02T19:50:53.501Z,20.94
2022-11-02T19:53:19.842Z,20.91
2022-11-02T19:55:46.149Z,20.87
2022-11-02T19:58:12.473Z,20.86
2022-11-02T20:00:38.888Z,20.77
2022-11-02T20:03:05.273Z,20.71
2022-11-02T20:05:31.577Z,20.72
2022-11-02T20:07:57.927Z,20.79
2022-11-02T20:10:24.273Z,20.82
2022-11-02T20:12:50.621Z,20.72
2022-11-02T20:15:16.972Z,20.75
2022-11-02T20:18:05.624Z,20.89
2022-11-02T20:20:09.655Z,20.98
2022-11-02T20:22:36.051Z,20.92
2022-11-02T20:25:02.373Z,20.86
2022-11-02T20:27:28.782Z,20.88
2022-11-02T20:29:55.084Z,20.84
2022-11-02T20:32:21.435Z,20.81
2022-11-02T20:34:47.790Z,20.76
2022-11-02T20:37:14.122Z,20.72
2022-11-02T20:39:40.475Z,20.72
2022-11-02T20:42:06.841Z,20.77
2022-11-02T20:44:33.205Z,20.76
2022-11-02T20:46:59.558Z,20.66
2022-11-02T20:51:52.367Z,20.75
2022-11-02T20:54:18.712Z,20.80
2022-11-02T20:56:45.033Z,20.96
2022-11-02T20:59:11.379Z,21.03
2022-11-02T21:01:37.805Z,21.01
2022-11-02T21:04:04.066Z,21.05
2022-11-02T21:06:30.454Z,21.01
2022-11-02T21:08:56.769Z,21.01
2022-11-02T21:11:23.119Z,21.00
2022-11-02T21:13:49.496Z,20.90
2022-11-02T21:16:15.843Z,20.91
2022-11-02T21:18:42.179Z,20.94
2022-11-02T21:21:08.517Z,20.94
2022-11-02T21:23:34.855Z,20.98
2022-11-02T21:26:01.195Z,21.00
2022-11-02T21:28:27.545Z,21.02
2022-11-02T21:30:53.895Z,21.01
2022-11-02T21:33:20.240Z,21.05
2022-11-02T21:35:46.585Z,21.01
2022-11-02T21:38:12.933Z,20.91
2022-11-02T21:40:39.267Z,20.93
2022-11-02T21:43:05.843Z,21.04
2022-11-02T21:45:36.610Z,21.01
2022-11-02T21:47:58.326Z,21.00
2022-11-02T21:50:24.708Z,20.96
2022-11-02T21:52:51.034Z,20.97
2022-11-02T21:55:17.384Z,20.97
2022-11-02T21:57:43.748Z,20.91
2022-11-02T22:00:10.120Z,20.81
2022-11-02T22:02:36.496Z,20.77
2022-11-02T22:05:02.783Z,20.70
2022-11-02T22:07:29.136Z,20.71
2022-11-02T22:09:55.460Z,20.61
2022-11-02T22:12:21.779Z,20.66
2022-11-02T22:14:48.130Z,20.70
2022-11-02T22:17:35.741Z,20.75
2022-11-02T22:19:40.788Z,20.74
2022-11-02T22:22:07.108Z,20.74
2022-11-02T22:24:33.514Z,20.77
2022-11-02T22:26:59.853Z,20.83
2022-11-02T22:29:26.177Z,20.81
2022-11-02T22:31:52.559Z,20.82
2022-11-02T22:34:18.908Z,20.87
2022-11-02T22:36:45.226Z,20.95
2022-11-02T22:39:11.600Z,20.96
2022-11-02T22:41:37.936Z,20.93
2022-11-02T22:44:04.286Z,20.88
2022-11-02T22:46:30.601Z,20.85
2022-11-02T22:48:56.981Z,20.79
2022-11-02T22:51:23.300Z,20.75
2022-11-02T22:53:49.624Z,20.63
2022-11-02T22:56:15.951Z,20.56
2022-11-02T22:58:42.336Z,20.57
2022-11-02T23:01:08.728Z,20.55
2022-11-02T23:03:35.020Z,20.47
2022-11-02T23:06:01.364Z,20.39
2022-11-02T23:10:54.644Z,20.40
2022-11-02T23:13:20.387Z,20.37
2022-11-02T23:15:46.710Z,20.39
2022-11-02T23:18:13.036Z,20.35
2022-11-02T23:20:39.435Z,20.36
2022-11-02T23:23:05.943Z,20.32
2022-11-02T23:25:32.104Z,20.24
2022-11-02T23:27:58.478Z,20.20
2022-11-02T23:30:24.813Z,20.17
2022-11-02T23:32:51.131Z,20.20
2022-11-02T23:35:17.521Z,20.19
2022-11-02T23:37:43.867Z,20.23
2022-11-02T23:40:10.194Z,20.26
2022-11-02T23:42:36.543Z,20.23
2022-11-02T23:45:02.864Z,20.24
2022-11-02T23:47:29.189Z,20.18
2022-11-02T23:49:55.549Z,20.17
2022-11-02T23:52:21.877Z,20.16
2022-11-02T23:54:48.200Z,20.26
2022-11-02T23:57:14.549Z,20.22
2022-11-02T23:59:40.895Z,20.18
